Time;durP1;ratioP1;P1;durP2;ratioP2;P2;SDS_P1;SDS_P2;PMS_P1;PMS_P2;Temp;Humidity;BMP_temperature;BMP_pressure;BME280_temperature;BME280_humidity;BME280_pressure;Samples;Min_cycle;Max_cycle;Signal;HPM_P1;HPM_P2
2021/09/08 00:02:24;;;;;;;10.05;6.70;;;10.80;99.90;;;9.45;100.00;102299.78;5065213;28;20063;-76
2021/09/08 00:04:50;;;;;;;93.22;3.83;;;10.90;99.90;;;9.41;100.00;102296.34;5049707;28;20041;-76
2021/09/08 00:07:16;;;;;;;8.60;3.63;;;10.80;99.90;;;9.25;100.00;102268.59;5049489;28;20527;-76
2021/09/08 00:09:42;;;;;;;3.63;2.65;;;10.70;99.90;;;9.18;100.00;102243.31;5032077;28;20058;-76
2021/09/08 00:12:08;;;;;;;3.60;2.92;;;10.60;99.90;;;9.13;100.00;102235.47;5049580;28;20028;-76
2021/09/08 00:14:35;;;;;;;8.13;4.50;;;10.60;99.90;;;9.15;100.00;102240.72;5032926;28;20037;-76
2021/09/08 00:17:01;;;;;;;5.57;4.03;;;;;;;9.18;100.00;102252.06;5039400;28;20103;-76
2021/09/08 00:19:28;;;;;;;7.50;5.28;;;10.60;99.90;;;9.15;100.00;102262.59;5049769;28;20043;-76
2021/09/08 00:21:54;;;;;;;5.18;3.40;;;10.60;99.90;;;9.16;100.00;102269.59;5023966;28;20053;-76
2021/09/08 00:24:20;;;;;;;9.07;4.10;;;10.60;99.90;;;9.13;100.00;102277.50;5041287;28;20058;-76
2021/09/08 00:26:46;;;;;;;12.63;8.23;;;10.60;99.90;;;9.21;100.00;102269.53;5039699;28;20422;-76
2021/09/08 00:29:12;;;;;;;9.80;5.82;;;10.70;99.90;;;9.24;100.00;102280.88;5042862;28;20063;-76
2021/09/08 00:31:38;;;;;;;17.13;8.52;;;10.70;99.90;;;9.35;100.00;102299.09;5024422;28;20051;-76
2021/09/08 00:34:04;;;;;;;15.70;10.25;;;;;;;9.49;100.00;102312.00;5041192;28;20069;-76
2021/09/08 00:36:30;;;;;;;18.60;11.35;;;10.90;99.90;;;9.55;100.00;102329.44;5047299;28;20423;-76
2021/09/08 00:38:56;;;;;;;23.52;14.13;;;10.90;99.90;;;9.57;100.00;102333.78;5039575;28;20063;-76
2021/09/08 00:41:23;;;;;;;22.40;14.02;;;11.00;99.90;;;9.60;100.00;102323.19;5025670;28;20033;-76
2021/09/08 00:43:49;;;;;;;25.70;14.27;;;11.00;99.90;;;9.61;100.00;103479.66;5022778;28;20541;-76
2021/09/08 00:46:15;;;;;;;20.70;12.52;;;11.00;99.90;;;9.60;100.00;103007.03;5050592;28;20066;-76
2021/09/08 00:48:41;;;;;;;17.85;11.63;;;10.90;99.90;;;9.54;100.00;102819.47;5049539;28;20509;-76
2021/09/08 00:51:07;;;;;;;16.73;9.25;;;10.90;99.90;;;9.44;100.00;102751.19;5046843;28;20065;-76
2021/09/08 00:53:35;;;;;;;17.83;9.98;;;10.80;99.90;;;9.41;100.00;102726.66;5034052;28;20055;-77
2021/09/08 00:56:03;;;;;;;19.70;9.45;;;10.80;99.90;;;9.33;100.00;102725.88;5041352;28;20438;-76
2021/09/08 00:58:31;;;;;;;12.77;9.27;;;10.70;99.90;;;9.25;100.00;102689.16;5046804;28;20032;-76
2021/09/08 01:00:58;;;;;;;14.73;9.50;;;10.60;99.90;;;9.20;100.00;102677.78;5049400;28;20071;-76
2021/09/08 01:03:24;;;;;;;21.80;12.32;;;10.60;99.90;;;9.30;100.00;102668.94;5048301;28;20503;-76
2021/09/08 01:05:50;;;;;;;21.77;12.05;;;10.70;99.90;;;9.38;100.00;102618.91;5022002;28;20054;-77
2021/09/08 01:08:16;;;;;;;38.40;13.15;;;10.80;99.90;;;9.45;100.00;102644.25;5031517;28;20403;-76
2021/09/08 01:10:42;;;;;;;15.98;9.45;;;10.90;99.90;;;9.41;100.00;102638.13;5037791;28;20051;-76
2021/09/08 01:13:09;;;;;;;11.85;9.18;;;10.70;99.90;;;9.31;100.00;102646.13;5014154;28;20171;-76
2021/09/08 01:15:35;;;;;;;12.65;9.23;;;10.70;99.90;;;9.23;100.00;102662.88;5041426;28;20100;-76
2021/09/08 01:18:01;;;;;;;15.63;9.23;;;10.60;99.90;;;9.20;100.00;102689.19;5031591;28;20138;-76
2021/09/08 01:20:27;;;;;;;13.32;9.35;;;10.60;99.90;;;9.17;100.00;102718.13;5049778;28;20284;-76
2021/09/08 01:22:54;;;;;;;14.07;9.75;;;10.60;99.90;;;9.18;100.00;102714.63;5048788;28;20104;-76
2021/09/08 01:25:24;;;;;;;21.45;11.80;;;10.70;99.90;;;9.33;100.00;102778.44;5051956;28;20395;-77
2021/09/08 01:27:53;;;;;;;28.10;16.58;;;10.80;99.90;;;9.53;100.00;102787.03;5042126;28;20162;-76
2021/09/08 01:30:22;;;;;;;20.55;13.23;;;11.00;99.90;;;9.61;100.00;102815.88;5027839;28;20461;-76
2021/09/08 01:32:49;;;;;;;20.67;13.48;;;10.90;99.90;;;9.48;100.00;102853.69;5042906;28;20076;-76
2021/09/08 01:35:19;;;;;;;363.17;9.13;;;10.70;99.90;;;8.92;100.00;102783.16;5033771;28;20380;-76
2021/09/08 01:37:49;;;;;;;79.38;6.03;;;10.20;99.90;;;8.33;100.00;102724.81;5042472;28;20483;-76
2021/09/08 01:40:18;;;;;;;35.47;4.88;;;9.80;99.90;;;8.05;100.00;102759.94;5027013;28;20037;-76
2021/09/08 01:42:46;;;;;;;11.45;4.45;;;9.60;99.90;;;7.98;100.00;102774.84;5043211;28;20051;-76
2021/09/08 01:45:17;;;;;;;5.63;4.97;;;9.50;99.90;;;7.99;100.00;102725.00;5033949;28;20044;-76
2021/09/08 01:47:44;;;;;;;9.63;6.28;;;9.50;99.90;;;8.10;100.00;102782.66;5036972;28;20066;-77
2021/09/08 01:50:11;;;;;;;8.88;6.95;;;9.70;99.90;;;8.34;100.00;102805.31;5044409;28;20196;-76
2021/09/08 01:52:38;;;;;;;8.98;6.93;;;9.80;99.90;;;8.38;100.00;102856.94;5052029;28;20116;-76
2021/09/08 01:55:12;;;;;;;15.45;9.68;;;9.80;99.90;;;8.46;100.00;102846.41;5052613;28;20066;-76
2021/09/08 01:57:39;;;;;;;19.92;11.23;;;9.90;99.90;;;8.61;100.00;102913.75;5032321;28;20062;-76
2021/09/08 02:00:09;;;;;;;20.33;12.65;;;10.00;99.90;;;8.70;100.00;102944.38;5032996;28;20549;-76
2021/09/08 02:02:35;;;;;;;18.05;11.35;;;10.20;99.90;;;8.79;100.00;102984.63;5048892;28;20029;-76
2021/09/08 02:05:04;;;;;;;18.55;11.65;;;10.20;99.90;;;8.76;100.00;102996.91;5037645;28;20516;-76
2021/09/08 02:07:30;;;;;;;16.50;10.20;;;10.20;99.90;;;8.65;100.00;103067.84;5049125;28;20066;-76
2021/09/08 02:09:57;;;;;;;14.35;7.93;;;10.00;99.90;;;8.49;100.00;102898.03;5053122;28;20077;-76
2021/09/08 02:12:23;;;;;;;9.32;6.80;;;9.90;99.90;;;8.40;100.00;102886.72;5045677;28;20125;-76
2021/09/08 02:14:50;;;;;;;6.97;5.68;;;9.80;99.90;;;8.34;100.00;102886.69;5043079;28;20058;-76
2021/09/08 02:17:18;;;;;;;8.63;6.10;;;9.80;99.90;;;8.27;100.00;102731.84;5025253;28;20054;-76
2021/09/08 02:19:44;;;;;;;7.25;5.57;;;9.60;99.90;;;8.13;100.00;102737.16;5035715;28;20527;-76
2021/09/08 02:22:11;;;;;;;56.25;6.35;;;9.60;99.90;;;7.96;100.00;102743.34;5027633;28;20055;-76
2021/09/08 02:24:37;;;;;;;19.35;5.22;;;9.40;99.90;;;7.77;100.00;102744.28;5036766;28;20076;-76
2021/09/08 02:27:03;;;;;;;4.57;4.15;;;9.30;99.90;;;7.73;100.00;102745.16;5050384;28;20069;-76
2021/09/08 02:29:29;;;;;;;4.90;4.20;;;9.30;99.90;;;7.74;100.00;102775.78;5043288;28;20142;-76
2021/09/08 02:31:55;;;;;;;7.30;5.70;;;9.20;99.90;;;7.76;100.00;102800.25;5035936;28;20027;-76
2021/09/08 02:34:21;;;;;;;5.82;5.22;;;9.30;99.90;;;7.80;100.00;102860.56;5048148;28;20624;-76
2021/09/08 02:36:47;;;;;;;8.05;6.85;;;9.30;99.90;;;7.85;100.00;102812.47;5036902;28;20465;-76
2021/09/08 02:39:13;;;;;;;7.82;6.53;;;9.30;99.90;;;7.88;100.00;102912.13;5053003;28;20086;-76
2021/09/08 02:41:39;;;;;;;9.52;6.45;;;9.30;99.90;;;7.90;100.00;102898.13;5051391;28;20055;-76
2021/09/08 02:44:05;;;;;;;9.15;6.43;;;9.40;99.90;;;7.95;100.00;102956.72;5033922;28;20055;-76
2021/09/08 02:46:31;;;;;;;7.57;5.72;;;9.40;99.90;;;7.98;100.00;103022.31;5033490;28;20068;-76
2021/09/08 02:48:57;;;;;;;8.23;6.03;;;9.50;99.90;;;8.00;100.00;103025.81;5041666;28;20058;-76
2021/09/08 02:51:23;;;;;;;95.38;11.10;;;9.50;99.90;;;8.10;100.00;103038.91;5068087;28;20506;-76
2021/09/08 02:53:49;;;;;;;27.58;13.63;;;9.70;99.90;;;8.43;100.00;103055.63;5034805;28;20077;-76
2021/09/08 02:56:15;;;;;;;37.72;19.02;;;9.90;99.90;;;8.59;100.00;103104.59;5045408;28;20068;-76
2021/09/08 02:58:41;;;;;;;41.08;20.95;;;10.10;99.90;;;8.79;100.00;103180.75;5055451;28;20055;-76
2021/09/08 03:01:11;;;;;;;54.88;26.08;;;10.10;99.90;;;8.78;100.00;103200.03;5032923;28;20407;-76
2021/09/08 03:03:38;;;;;;;58.53;26.30;;;10.20;99.90;;;8.87;100.00;103221.06;5057911;28;20142;-76
2021/09/08 03:06:05;;;;;;;69.85;30.15;;;10.20;99.90;;;8.95;100.00;103214.06;5034543;28;20108;-76
2021/09/08 03:08:33;;;;;;;65.05;29.70;;;10.30;99.90;;;9.01;100.00;103219.31;5026381;28;20142;-77
2021/09/08 03:10:59;;;;;;;81.82;33.08;;;10.40;99.90;;;9.17;100.00;103261.38;5041838;28;20073;-76
2021/09/08 03:13:25;;;;;;;61.03;27.45;;;10.50;99.90;;;9.19;100.00;103286.78;5050655;28;20442;-76
2021/09/08 03:15:51;;;;;;;59.47;22.95;;;10.60;99.90;;;9.21;100.00;103285.00;5050312;28;20546;-76
2021/09/08 03:18:17;;;;;;;43.15;21.55;;;10.60;99.90;;;9.04;100.00;103300.78;5041853;28;20056;-76
2021/09/08 03:20:43;;;;;;;35.75;19.35;;;10.40;99.90;;;8.88;100.00;103321.81;5059420;28;20121;-76
2021/09/08 03:23:10;;;;;;;35.22;17.65;;;10.30;99.90;;;8.76;100.00;103334.00;4995876;28;20530;-76
2021/09/08 03:25:36;;;;;;;26.70;15.43;;;10.20;99.90;;;8.67;100.00;103339.25;5051457;28;20075;-76
2021/09/08 03:28:03;;;;;;;30.98;16.10;;;10.10;99.90;;;8.57;100.00;103332.19;5032382;28;20113;-76
2021/09/08 03:30:29;;;;;;;24.33;14.35;;;10.00;99.90;;;8.46;100.00;103407.44;5040994;28;20183;-76
2021/09/08 03:32:55;;;;;;;15.40;9.55;;;9.90;99.90;;;8.22;100.00;103362.66;5058949;28;20024;-76
2021/09/08 03:35:21;;;;;;;10.80;6.55;;;9.70;99.90;;;8.11;100.00;103405.47;5067494;28;20543;-76
2021/09/08 03:37:48;;;;;;;39.30;5.70;;;9.60;99.90;;;7.94;100.00;103387.84;5043640;28;20059;-76
2021/09/08 03:40:15;;;;;;;301.92;6.72;;;9.40;99.90;;;7.64;100.00;103367.50;5031157;28;20040;-76
2021/09/08 03:42:42;;;;;;;8.35;5.10;;;9.20;99.90;;;7.58;100.00;103356.97;5042591;28;20052;-75
2021/09/08 03:45:10;;;;;;;14.82;9.75;;;9.20;99.90;;;7.63;100.00;103407.72;5014839;28;20515;-77
2021/09/08 03:47:36;;;;;;;19.45;12.65;;;9.30;99.90;;;7.86;100.00;103473.50;5049756;28;20074;-76
2021/09/08 03:50:04;;;;;;;31.83;13.15;;;9.50;99.90;;;8.07;100.00;103395.81;5039720;28;21162;-77
2021/09/08 03:52:30;;;;;;;41.75;13.40;;;9.50;99.90;;;8.11;100.00;103381.84;5041269;28;20029;-76
2021/09/08 03:54:56;;;;;;;30.75;15.13;;;9.60;99.90;;;8.11;100.00;103387.97;5030365;28;20035;-76
2021/09/08 03:57:22;;;;;;;41.78;16.83;;;9.60;99.90;;;8.14;100.00;103505.19;5058699;28;20447;-76
2021/09/08 03:59:48;;;;;;;41.88;21.35;;;9.60;99.90;;;8.28;100.00;103508.81;5041676;28;20086;-76
2021/09/08 04:02:14;;;;;;;43.83;22.63;;;9.70;99.90;;;8.41;100.00;103501.94;5034060;28;20033;-77
2021/09/08 04:04:40;;;;;;;46.95;23.33;;;9.90;99.90;;;8.45;100.00;103448.59;5039069;28;20113;-76
2021/09/08 04:07:06;;;;;;;51.83;25.08;;;9.90;99.90;;;8.46;100.00;103425.81;5041435;28;20632;-76
2021/09/08 04:09:32;;;;;;;50.55;27.50;;;9.90;99.90;;;8.49;100.00;103392.59;5043405;28;20056;-76
2021/09/08 04:11:59;;;;;;;48.08;25.38;;;9.90;99.90;;;8.49;100.00;103423.19;5038807;28;20061;-76
2021/09/08 04:14:25;;;;;;;62.03;28.05;;;9.90;99.90;;;8.54;100.00;103395.22;5024498;28;20066;-76
2021/09/08 04:16:51;;;;;;;44.58;24.63;;;10.00;99.90;;;8.55;100.00;103450.41;5013801;28;20056;-76
2021/09/08 04:19:20;;;;;;;49.90;24.63;;;10.00;99.90;;;8.52;100.00;103426.72;5033961;28;20086;-76
2021/09/08 04:21:46;;;;;;;59.83;27.08;;;9.90;99.90;;;8.46;100.00;103412.69;5036812;28;20607;-76
2021/09/08 04:24:12;;;;;;;49.00;23.05;;;9.90;99.90;;;8.42;100.00;103459.06;5059705;28;20067;-76
2021/09/08 04:26:38;;;;;;;37.75;21.63;;;9.90;99.90;;;8.48;100.00;103459.09;5035274;28;20117;-76
2021/09/08 04:29:04;;;;;;;42.78;23.45;;;9.90;99.90;;;8.47;100.00;103474.84;5047167;28;20059;-76
2021/09/08 04:31:31;;;;;;;38.00;20.10;;;9.90;99.90;;;8.39;100.00;103461.63;5050597;28;20050;-76
2021/09/08 04:33:57;;;;;;;37.65;19.70;;;9.80;99.90;;;8.33;100.00;103448.47;5049227;28;20510;-77
2021/09/08 04:36:23;;;;;;;24.85;17.00;;;9.70;99.90;;;8.22;100.00;103443.16;5024605;28;20104;-76
2021/09/08 04:38:49;;;;;;;19.30;12.57;;;9.60;99.90;;;7.95;100.00;103441.22;5066476;28;20075;-76
2021/09/08 04:41:17;;;;;;;16.95;9.30;;;9.40;99.90;;;7.75;100.00;103456.78;5030400;28;20074;-76
2021/09/08 04:43:44;;;;;;;11.82;9.45;;;9.20;99.90;;;7.62;100.00;103457.53;5051749;28;20140;-76
2021/09/08 04:46:10;;;;;;;31.38;9.13;;;9.10;99.90;;;7.53;100.00;103435.59;5048794;28;20150;-76
2021/09/08 04:48:36;;;;;;;13.45;9.15;;;9.00;99.90;;;7.52;100.00;103473.19;5039544;28;20423;-76
2021/09/08 04:51:03;;;;;;;272.73;15.70;;;9.10;99.90;;;7.58;100.00;103519.53;5050146;28;20047;-76
2021/09/08 04:53:29;;;;;;;49.10;17.65;;;9.20;99.90;;;7.88;100.00;103565.31;5047911;28;20028;-76
2021/09/08 04:55:57;;;;;;;75.93;26.30;;;9.40;99.90;;;8.17;100.00;103542.84;5022701;28;20501;-76
2021/09/08 04:58:24;;;;;;;114.80;37.15;;;9.70;99.90;;;8.54;100.00;103574.69;5022104;28;20125;-76
2021/09/08 05:00:51;;;;;;;216.07;42.95;;;10.00;99.90;;;8.80;100.00;103592.38;5048752;28;20083;-76
2021/09/08 05:03:17;;;;;;;95.05;41.75;;;10.20;99.90;;;8.84;100.00;103638.84;5049425;28;20108;-76
2021/09/08 05:05:43;;;;;;;78.45;37.13;;;10.20;99.90;;;8.91;100.00;103655.50;5040033;28;20068;-76
2021/09/08 05:08:09;;;;;;;51.78;24.77;;;10.40;99.90;;;8.89;100.00;103704.56;5047346;28;20065;-76
2021/09/08 05:10:38;;;;;;;72.03;23.95;;;10.20;99.90;;;8.62;100.00;103698.22;5049849;28;20522;-77
2021/09/08 05:13:04;;;;;;;41.95;19.20;;;10.10;99.90;;;8.56;100.00;103720.03;5041198;28;20074;-76
2021/09/08 05:15:30;;;;;;;42.20;18.38;;;10.10;99.90;;;8.55;100.00;103702.53;5013767;28;20071;-76
2021/09/08 05:17:56;;;;;;;31.25;17.67;;;10.10;99.90;;;8.56;100.00;103719.16;5056994;28;20415;-76
2021/09/08 05:20:22;;;;;;;41.17;18.92;;;10.10;99.90;;;8.59;100.00;103751.56;5024878;28;20409;-76
2021/09/08 05:22:48;;;;;;;35.95;16.52;;;10.20;99.90;;;8.73;100.00;103759.59;5031880;28;20025;-76
2021/09/08 05:25:15;;;;;;;30.98;17.65;;;10.40;99.90;;;8.90;100.00;103783.41;5040009;28;20071;-76
2021/09/08 05:27:41;;;;;;;50.10;18.85;;;10.50;99.90;;;8.99;100.00;103786.13;5042354;28;20067;-76
2021/09/08 05:30:07;;;;;;;35.85;18.58;;;10.60;99.90;;;9.13;100.00;103817.75;5022233;28;20025;-77
2021/09/08 05:32:33;;;;;;;44.05;18.77;;;10.70;99.90;;;9.23;100.00;103832.75;5048264;28;20075;-76
2021/09/08 05:34:59;;;;;;;42.10;19.50;;;10.80;99.90;;;9.35;100.00;103823.22;5039778;28;20064;-76
2021/09/08 05:37:25;;;;;;;38.53;20.80;;;10.90;99.90;;;9.56;100.00;103867.22;5046325;28;20159;-76
2021/09/08 05:48:13;;;;;;;28.67;19.20;;;11.50;99.90;;;10.15;100.00;103871.09;5050614;28;20051;-76
2021/09/08 05:50:39;;;;;;;41.35;23.73;;;11.70;99.90;;;10.26;100.00;103843.09;5047724;28;20055;-76
2021/09/08 05:53:06;;;;;;;53.67;27.70;;;11.80;99.90;;;10.38;100.00;103916.91;5013754;28;20055;-77
2021/09/08 05:55:32;;;;;;;67.32;26.67;;;11.90;99.90;;;10.57;100.00;103956.53;5015663;28;20056;-77
2021/09/08 05:57:59;;;;;;;54.10;31.10;;;12.20;99.90;;;11.25;100.00;104044.69;5025910;28;20073;-77
2021/09/08 06:00:25;;;;;;;59.17;36.38;;;13.10;99.90;;;12.04;100.00;104045.75;5047069;28;20071;-77
2021/09/08 06:02:51;;;;;;;51.92;33.05;;;13.50;99.90;;;12.30;100.00;104072.19;5030697;28;20078;-77
2021/09/08 06:05:18;;;;;;;49.83;29.13;;;13.90;99.90;;;12.59;100.00;104052.75;5056793;28;20059;-77
2021/09/08 06:07:44;;;;;;;40.63;26.05;;;14.10;99.90;;;12.65;100.00;103999.88;5031811;28;20036;-77
2021/09/08 06:10:17;;;;;;;39.17;22.23;;;14.00;99.90;;;12.65;100.00;104047.44;5025560;28;20557;-77
2021/09/08 06:12:45;;;;;;;44.95;22.23;;;14.10;99.90;;;12.71;100.00;104013.06;5053435;28;20036;-77
2021/09/08 06:15:16;;;;;;;30.05;20.02;;;14.10;99.90;;;12.71;100.00;104042.16;5049944;28;20048;-78
2021/09/08 06:17:42;;;;;;;30.60;20.80;;;14.30;99.90;;;13.14;100.00;104100.22;5034438;28;20146;-77
2021/09/08 06:20:09;;;;;;;42.90;18.23;;;14.60;99.90;;;13.27;100.00;104051.63;5032018;28;20414;-78
2021/09/08 06:22:35;;;;;;;22.17;15.73;;;14.60;99.90;;;13.31;100.00;103899.91;5027777;28;20143;-77
2021/09/08 06:25:02;;;;;;;23.88;15.43;;;14.60;99.90;;;13.44;100.00;103632.50;5043888;28;20045;-77
2021/09/08 06:27:28;;;;;;;23.58;15.60;;;14.70;99.90;;;13.76;100.00;103605.59;5030640;28;20062;-78
2021/09/08 06:29:54;;;;;;;32.10;14.05;;;15.10;99.90;;;14.22;100.00;103604.88;5026980;28;20021;-77
2021/09/08 06:32:20;;;;;;;20.48;12.80;;;15.50;99.90;;;14.43;98.57;103581.59;5033314;28;20105;-77
2021/09/08 06:34:47;;;;;;;18.58;12.55;;;15.60;99.90;;;14.63;96.66;103591.84;5052593;28;20032;-77
2021/09/08 06:37:14;;;;;;;15.82;12.05;;;15.70;99.90;;;14.57;96.74;103545.97;5051283;28;20377;-77
2021/09/08 06:39:40;;;;;;;21.85;12.25;;;15.70;99.90;;;14.88;96.29;103534.78;5011255;28;20450;-77
2021/09/08 06:42:07;;;;;;;16.23;11.73;;;16.10;99.90;;;15.43;92.96;103553.09;5015844;28;20388;-76
2021/09/08 06:44:33;;;;;;;20.08;11.25;;;16.70;99.90;;;16.14;91.22;103590.44;5034677;28;20020;-76
2021/09/08 06:46:59;;;;;;;14.18;9.95;;;17.70;99.90;;;17.69;87.20;103688.28;5049244;28;20068;-77
2021/09/08 06:49:25;;;;;;;15.32;8.48;;;19.10;99.90;;;19.81;75.87;103804.13;5008276;28;20052;-77
2021/09/08 06:51:51;;;;;;;14.30;8.52;;;20.70;99.90;;;21.36;64.25;103881.00;5032541;28;20508;-76
2021/09/08 06:54:18;;;;;;;14.75;7.70;;;22.10;99.90;;;22.75;61.49;103898.94;5052061;28;20056;-77
2021/09/08 06:56:44;;;;;;;12.43;7.53;;;23.50;99.90;;;24.04;54.76;103882.50;5050852;28;20131;-77
2021/09/08 06:59:10;;;;;;;14.93;6.88;;;24.50;99.90;;;24.86;50.19;103842.91;5047623;28;20406;-77
2021/09/08 07:01:36;;;;;;;15.70;7.10;;;25.30;99.90;;;25.55;49.16;103877.44;5034153;28;20016;-77
2021/09/08 07:04:03;;;;;;;13.48;7.88;;;25.70;99.90;;;26.26;46.32;103829.81;5043972;28;20028;-77
2021/09/08 07:06:29;;;;;;;15.77;7.20;;;26.40;99.90;;;26.83;47.55;103946.91;5042634;28;20346;-77
2021/09/08 07:08:55;;;;;;;20.42;8.10;;;26.50;99.90;;;26.56;45.60;103788.28;5051899;28;20469;-77
2021/09/08 07:11:21;;;;;;;13.70;7.00;;;27.30;99.90;;;27.11;43.58;103752.06;5049908;28;20043;-77
2021/09/08 07:13:48;;;;;;;13.20;6.90;;;27.50;99.90;;;27.68;43.55;103923.16;5035888;28;20162;-77
2021/09/08 07:16:14;;;;;;;17.55;7.65;;;27.60;99.10;;;27.43;42.97;103784.16;5050796;28;20027;-78
2021/09/08 07:18:41;;;;;;;10.88;7.30;;;27.80;99.90;;;27.60;43.73;103704.44;5033893;28;20023;-78
2021/09/08 07:21:07;;;;;;;13.55;7.47;;;26.50;99.90;;;26.84;44.15;103564.75;5049381;28;20052;-77
2021/09/08 07:23:34;;;;;;;15.88;7.47;;;;;;;27.36;44.92;103552.88;5042648;28;20021;-77
2021/09/08 07:26:00;;;;;;;11.70;7.10;;;27.80;99.90;;;28.42;42.26;103578.22;5051158;28;20021;-77
2021/09/08 07:28:26;;;;;;;15.38;8.25;;;28.10;98.50;;;28.38;40.56;103540.59;5023920;28;20027;-77
2021/09/08 07:30:55;;;;;;;15.88;7.68;;;28.00;98.40;;;28.87;41.82;103549.41;5020361;28;20041;-78
2021/09/08 07:33:23;;;;;;;11.98;7.30;;;28.50;98.70;;;29.00;40.15;103495.91;5033823;28;20034;-78
2021/09/08 07:35:51;;;;;;;12.00;7.25;;;28.70;97.50;;;29.08;39.37;104092.94;5023622;28;20039;-77
2021/09/08 07:38:23;;;;;;;14.52;6.95;;;28.60;97.30;;;28.96;41.19;103641.75;5066434;28;20021;-77
2021/09/08 07:40:49;;;;;;;15.10;7.43;;;29.40;96.80;;;29.06;40.35;103460.13;5025765;28;20025;-78
2021/09/08 07:43:15;;;;;;;13.70;7.82;;;28.80;96.70;;;28.95;40.30;103385.09;5048398;28;20073;-77
2021/09/08 07:45:41;;;;;;;9.95;6.57;;;27.90;98.00;;;28.52;40.85;103317.31;5051036;28;20029;-77
2021/09/08 07:48:07;;;;;;;12.82;6.95;;;27.10;98.70;;;27.60;42.32;103185.72;5041096;28;20507;-77
2021/09/08 07:50:33;;;;;;;11.30;6.70;;;27.10;99.90;;;28.13;42.65;103208.53;5051571;28;20113;-77
2021/09/08 07:53:01;;;;;;;10.98;7.07;;;27.10;99.50;;;27.34;43.73;103039.03;5041626;28;20499;-77
2021/09/08 07:55:27;;;;;;;12.73;7.70;;;26.80;99.90;;;27.77;43.58;103045.41;5040921;28;20082;-78
2021/09/08 07:57:53;;;;;;;15.48;6.85;;;27.50;99.90;;;28.74;42.22;103000.06;5050931;28;20020;-77
2021/09/08 08:00:19;;;;;;;13.43;6.80;;;28.20;97.80;;;28.70;41.01;102914.59;5047453;28;20033;-77
2021/09/08 08:02:51;;;;;;;13.05;7.25;;;28.10;97.70;;;28.58;41.27;102913.84;5053826;28;20032;-77
2021/09/08 08:05:18;;;;;;;11.07;6.40;;;28.30;98.10;;;28.76;41.04;102915.91;5041363;28;20025;-77
2021/09/08 08:07:46;;;;;;;12.60;7.40;;;28.60;97.70;;;28.99;41.27;102833.31;4998981;28;20060;-77
2021/09/08 08:10:15;;;;;;;11.73;7.13;;;29.00;96.90;;;29.52;39.70;103030.13;5053142;28;20119;-77
2021/09/08 08:12:41;;;;;;;11.95;6.95;;;28.70;97.00;;;29.54;38.96;103077.00;5032547;28;20382;-77
2021/09/08 08:15:10;;;;;;;10.93;6.78;;;27.70;98.20;;;28.06;42.96;102953.63;5034084;28;20030;-77
2021/09/08 08:17:36;;;;;;;16.20;7.20;;;27.80;98.20;;;28.23;41.01;102912.41;5022781;28;20021;-77
2021/09/08 08:20:04;;;;;;;15.63;6.97;;;26.80;98.80;;;27.15;43.51;102782.75;5041962;28;20025;-76
2021/09/08 08:22:31;;;;;;;17.63;7.72;;;26.10;99.90;;;26.93;44.71;102715.25;5049166;28;20377;-77
2021/09/08 08:24:57;;;;;;;11.10;7.05;;;26.20;99.90;;;27.38;43.61;102672.59;5033771;28;20038;-76
2021/09/08 08:27:23;;;;;;;13.05;7.47;;;26.20;99.90;;;27.48;43.02;102634.78;5050208;28;20056;-76
2021/09/08 08:29:49;;;;;;;10.93;7.07;;;26.30;99.90;;;27.48;43.10;102615.00;5048312;28;20407;-76
2021/09/08 08:32:15;;;;;;;11.68;6.68;;;26.30;99.90;;;27.28;43.77;102603.22;5050681;28;20021;-76
2021/09/08 08:34:41;;;;;;;12.70;7.05;;;26.30;99.90;;;27.46;42.93;102585.38;5049352;28;20032;-76
2021/09/08 08:37:07;;;;;;;16.45;7.38;;;26.50;99.80;;;27.39;42.77;102533.66;5050595;28;20391;-76
2021/09/08 08:39:33;;;;;;;13.25;7.22;;;26.50;99.60;;;27.44;43.05;102529.69;5048442;28;20028;-76
2021/09/08 08:41:59;;;;;;;11.45;6.60;;;26.50;99.80;;;27.50;43.28;102781.59;5033160;28;20035;-76
2021/09/08 08:44:26;;;;;;;10.95;6.45;;;26.80;99.80;;;28.16;42.74;102680.16;5040606;28;20680;-76
2021/09/08 08:46:54;;;;;;;21.90;6.72;;;27.00;99.60;;;28.35;43.17;102650.38;5048699;28;20028;-76
2021/09/08 08:49:20;;;;;;;13.13;6.57;;;27.30;98.80;;;27.95;42.21;102567.41;5040952;28;20025;-76
2021/09/08 08:51:48;;;;;;;10.55;6.53;;;27.10;98.90;;;27.57;42.63;102524.88;5065875;28;20491;-76
2021/09/08 08:54:15;;;;;;;11.30;6.95;;;26.80;99.10;;;26.76;44.00;102431.16;5041716;28;20069;-76
2021/09/08 08:56:41;;;;;;;18.25;6.60;;;26.20;99.90;;;26.63;45.63;102443.16;5046476;28;20120;-76
2021/09/08 08:59:07;;;;;;;16.98;6.93;;;26.60;99.80;;;26.67;44.63;102452.69;5049190;28;20045;-76
2021/09/08 09:01:36;;;;;;;10.55;5.88;;;26.40;99.90;;;26.77;46.53;102427.44;5036091;28;20499;-76
2021/09/08 09:04:14;;;;;;;13.55;6.22;;;26.70;99.40;;;26.55;45.03;102368.19;5021316;28;20025;-76
2021/09/08 09:06:42;;;;;;;11.18;6.50;;;26.70;99.40;;;26.39;45.69;102363.25;5012481;28;20017;-76
2021/09/08 09:09:14;;;;;;;10.90;5.85;;;26.80;99.90;;;26.30;45.71;102323.59;5019804;28;20112;-76
2021/09/08 09:11:47;;;;;;;11.95;6.28;;;26.20;99.70;;;25.55;47.26;102256.28;5011897;28;20040;-76
2021/09/08 09:14:22;;;;;;;13.80;6.40;;;26.10;99.90;;;25.32;47.90;102241.25;5009869;28;20106;-76
2021/09/08 09:16:48;;;;;;;13.73;6.40;;;26.10;99.90;;;25.40;48.32;102236.06;5014760;28;20032;-77
2021/09/08 09:19:16;;;;;;;11.23;6.05;;;25.90;99.90;;;25.17;48.94;102195.69;5030086;28;20025;-76
2021/09/08 09:21:44;;;;;;;10.02;5.90;;;25.80;99.90;;;24.92;48.31;102174.53;4997996;28;20111;-76
2021/09/08 09:24:10;;;;;;;12.82;6.15;;;25.60;99.90;;;24.92;49.11;102171.84;5003226;28;20263;-76
2021/09/08 09:26:42;;;;;;;11.68;5.82;;;26.00;99.90;;;25.27;48.42;102176.06;5032900;28;20021;-76
2021/09/08 09:29:20;;;;;;;9.00;5.50;;;26.00;99.90;;;25.09;49.93;102157.78;4991938;28;20107;-76
2021/09/08 09:32:07;;;;;;;13.15;6.28;;;25.90;99.90;;;25.00;50.59;102131.63;5014617;28;20036;-76
2021/09/08 09:34:40;;;;;;;10.85;5.97;;;25.70;99.90;;;24.70;50.32;102094.69;5019660;28;20408;-76
2021/09/08 09:37:08;;;;;;;9.73;6.13;;;25.30;99.90;;;24.43;49.81;102073.63;5014399;28;20021;-76
2021/09/08 09:39:38;;;;;;;10.73;5.70;;;25.00;99.90;;;23.98;50.59;102036.13;5031704;28;20403;-76
2021/09/08 09:42:10;;;;;;;8.90;5.70;;;24.50;99.90;;;24.00;50.83;102098.75;5019960;28;20024;-76
2021/09/08 09:44:37;;;;;;;9.43;5.50;;;24.40;99.90;;;23.76;51.52;102062.13;5007471;28;20033;-76
2021/09/08 09:47:08;;;;;;;9.32;6.10;;;24.30;99.90;;;23.73;50.36;102052.41;5019901;28;20024;-76
2021/09/08 09:49:42;;;;;;;15.50;6.55;;;24.20;99.90;;;23.81;49.92;102056.34;5008436;28;20047;-76
2021/09/08 09:52:13;;;;;;;10.98;6.05;;;24.00;99.90;;;23.45;50.98;102012.63;5002176;28;21708;-76
2021/09/08 09:54:40;;;;;;;37.97;6.85;;;24.20;99.90;;;23.77;52.39;102036.91;5019761;28;20398;-77
2021/09/08 09:57:08;;;;;;;10.13;5.47;;;24.30;99.90;;;23.68;51.50;102019.66;5035566;28;20047;-77
2021/09/08 09:59:37;;;;;;;9.82;5.45;;;24.20;99.90;;;23.95;51.30;102029.16;5026542;28;20438;-77
2021/09/08 10:02:28;;;;;;;10.90;6.28;;;24.40;99.90;;;24.31;51.74;102048.59;5006250;28;20029;-77
2021/09/08 10:05:08;;;;;;;9.70;5.72;;;24.70;99.90;;;24.26;51.29;102019.38;5001235;28;20071;-77
2021/09/08 10:08:01;;;;;;;16.75;5.97;;;24.90;99.90;;;24.50;50.25;102023.69;5014705;28;20678;-77
2021/09/08 10:10:33;;;;;;;11.70;5.60;;;25.10;99.90;;;24.71;49.37;102019.16;5027844;28;20493;-77
2021/09/08 10:13:18;;;;;;;9.45;5.45;;;25.10;99.90;;;24.60;49.53;101996.81;5015368;28;20051;-77
2021/09/08 10:15:44;;;;;;;14.50;5.80;;;25.00;99.90;;;24.76;52.59;102008.84;5022191;28;20089;-78